Time;durP1;ratioP1;P1;durP2;ratioP2;P2;SDS_P1;SDS_P2;PMS_P1;PMS_P2;Temp;Humidity;BMP_temperature;BMP_pressure;BME280_temperature;BME280_humidity;BME280_pressure;Samples;Min_cycle;Max_cycle;Signal;HPM_P1;HPM_P2
2021/12/06 00:02:38;;;;;;;;;;;16.90;38.80;;;;;;8365257;28;19917;-51
2021/12/06 00:06:40;;;;;;;;;;;16.90;38.80;;;;;;8364400;28;19932;-48
2021/12/06 00:10:41;;;;;;;;;;;16.90;38.90;;;;;;8365584;28;19912;-49
2021/12/06 00:14:42;;;;;;;;;;;16.90;38.90;;;;;;8365021;28;19916;-48
2021/12/06 00:18:47;;;;;;;;;;;16.90;38.80;;;;;;8363671;28;21294;-49
2021/12/06 00:22:48;;;;;;;;;;;16.80;38.80;;;;;;8364912;28;20281;-48
2021/12/06 00:26:48;;;;;;;;;;;16.90;38.80;;;;;;8364082;28;19931;-50
2021/12/06 00:30:50;;;;;;;;;;;16.90;38.80;;;;;;8364560;28;19913;-50
2021/12/06 00:34:50;;;;;;;;;;;16.90;38.80;;;;;;8364797;28;19917;-49
2021/12/06 00:38:51;;;;;;;;;;;16.90;38.80;;;;;;8363750;28;19939;-50
2021/12/06 00:42:51;;;;;;;;;;;16.90;38.80;;;;;;8364528;28;19924;-50
2021/12/06 00:46:52;;;;;;;;;;;16.90;38.80;;;;;;8364152;28;19927;-50
2021/12/06 00:50:52;;;;;;;;;;;16.80;38.80;;;;;;8363797;28;19944;-52
2021/12/06 00:54:53;;;;;;;;;;;16.80;38.80;;;;;;8363947;28;20007;-52
2021/12/06 00:58:53;;;;;;;;;;;16.90;38.80;;;;;;8362593;28;19921;-48
2021/12/06 01:02:55;;;;;;;;;;;16.80;38.70;;;;;;8363216;28;19921;-50
2021/12/06 01:06:55;;;;;;;;;;;16.90;38.70;;;;;;8363876;28;20009;-50
2021/12/06 01:10:56;;;;;;;;;;;16.80;38.70;;;;;;8363852;28;19937;-51
2021/12/06 01:14:56;;;;;;;;;;;16.80;38.70;;;;;;8362513;28;19917;-49
2021/12/06 01:18:57;;;;;;;;;;;16.80;38.70;;;;;;8363257;28;19952;-53
2021/12/06 01:23:07;;;;;;;;;;;16.80;38.70;;;;;;8363353;28;19955;-50
2021/12/06 01:31:19;;;;;;;;;;;16.80;38.60;;;;;;8363641;28;19920;-53
2021/12/06 01:39:39;;;;;;;;;;;16.80;38.70;;;;;;8362736;28;19923;-49
2021/12/06 01:43:58;;;;;;;;;;;16.80;38.70;;;;;;8363093;28;20274;-53
2021/12/06 01:47:58;;;;;;;;;;;16.80;38.60;;;;;;8362211;28;19925;-52
2021/12/06 01:52:01;;;;;;;;;;;16.80;38.70;;;;;;8363127;28;19912;-47
2021/12/06 01:56:01;;;;;;;;;;;16.80;38.60;;;;;;8363034;28;20309;-49
2021/12/06 02:00:08;;;;;;;;;;;16.80;38.60;;;;;;8362236;28;19920;-49
2021/12/06 02:04:09;;;;;;;;;;;16.80;38.70;;;;;;8362675;28;20298;-49
2021/12/06 02:08:10;;;;;;;;;;;16.80;39.00;;;;;;8362575;28;20315;-48
2021/12/06 02:12:12;;;;;;;;;;;16.80;38.70;;;;;;8344288;28;20287;-48
2021/12/06 02:16:13;;;;;;;;;;;16.80;38.60;;;;;;8362494;28;19912;-50
2021/12/06 02:20:22;;;;;;;;;;;16.80;38.60;;;;;;8362375;28;19924;-49
2021/12/06 02:24:23;;;;;;;;;;;16.80;38.60;;;;;;8361753;28;19917;-49
2021/12/06 02:28:23;;;;;;;;;;;16.80;38.60;;;;;;8365970;28;19990;-49
2021/12/06 02:32:25;;;;;;;;;;;16.80;38.60;;;;;;8368233;28;19917;-49
2021/12/06 02:36:26;;;;;;;;;;;16.80;38.60;;;;;;8367769;28;19916;-50
2021/12/06 02:40:28;;;;;;;;;;;16.80;38.50;;;;;;8368167;28;19928;-47
2021/12/06 02:44:29;;;;;;;;;;;16.80;38.60;;;;;;8367582;28;19920;-48
2021/12/06 02:48:29;;;;;;;;;;;16.70;38.50;;;;;;8367214;28;19931;-47
2021/12/06 02:52:30;;;;;;;;;;;16.80;38.60;;;;;;8367871;28;20003;-49
2021/12/06 03:00:31;;;;;;;;;;;16.80;38.50;;;;;;8367351;28;20004;-51
2021/12/06 03:04:32;;;;;;;;;;;16.80;38.50;;;;;;8367481;28;20294;-48
2021/12/06 03:08:33;;;;;;;;;;;16.80;38.50;;;;;;8367126;28;19921;-51
2021/12/06 03:12:34;;;;;;;;;;;16.70;38.50;;;;;;8365280;28;19924;-49
2021/12/06 03:16:34;;;;;;;;;;;16.70;38.50;;;;;;8367572;28;19921;-48
2021/12/06 03:20:35;;;;;;;;;;;16.80;38.50;;;;;;8367018;28;19924;-50
2021/12/06 03:24:36;;;;;;;;;;;16.80;38.50;;;;;;8366128;28;20366;-49
2021/12/06 03:28:37;;;;;;;;;;;16.70;38.50;;;;;;8366233;28;19928;-51
2021/12/06 03:32:37;;;;;;;;;;;16.70;38.50;;;;;;8366661;28;20285;-47
2021/12/06 03:36:38;;;;;;;;;;;16.70;38.40;;;;;;8365648;28;20003;-47
2021/12/06 03:40:38;;;;;;;;;;;16.70;38.40;;;;;;8365750;28;19940;-48
2021/12/06 03:44:39;;;;;;;;;;;16.70;38.40;;;;;;8365832;28;19975;-48
2021/12/06 03:48:40;;;;;;;;;;;16.70;38.40;;;;;;8365231;28;19931;-48
2021/12/06 03:52:40;;;;;;;;;;;16.70;38.40;;;;;;8366645;28;19947;-49
2021/12/06 03:56:41;;;;;;;;;;;16.70;38.30;;;;;;8365549;28;19923;-48
2021/12/06 04:00:41;;;;;;;;;;;16.70;38.30;;;;;;8364997;28;19921;-47
2021/12/06 04:04:42;;;;;;;;;;;16.70;38.40;;;;;;8365165;28;19920;-48
2021/12/06 04:08:43;;;;;;;;;;;16.70;38.30;;;;;;8364968;28;19929;-49
2021/12/06 04:12:43;;;;;;;;;;;16.70;38.30;;;;;;8364633;28;19913;-47
2021/12/06 04:16:44;;;;;;;;;;;16.80;38.30;;;;;;8365007;28;20055;-48
2021/12/06 04:20:45;;;;;;;;;;;16.80;38.10;;;;;;8364766;28;19963;-48
2021/12/06 04:24:45;;;;;;;;;;;16.80;38.10;;;;;;8364111;28;19917;-50
2021/12/06 04:28:57;;;;;;;;;;;16.80;38.10;;;;;;8364562;28;19921;-49
2021/12/06 04:32:58;;;;;;;;;;;16.80;38.10;;;;;;8366469;28;19917;-50
2021/12/06 04:36:58;;;;;;;;;;;16.80;38.10;;;;;;8364532;28;20373;-52
2021/12/06 04:40:59;;;;;;;;;;;16.80;38.10;;;;;;8364108;28;20011;-48
2021/12/06 04:44:59;;;;;;;;;;;16.90;38.10;;;;;;8363665;28;19920;-50
2021/12/06 04:49:00;;;;;;;;;;;16.90;38.10;;;;;;8363930;28;20374;-48
2021/12/06 04:53:03;;;;;;;;;;;16.90;38.20;;;;;;8363241;28;19927;-48
2021/12/06 04:57:07;;;;;;;;;;;16.80;38.10;;;;;;8363382;28;19952;-48
2021/12/06 05:01:12;;;;;;;;;;;16.80;38.10;;;;;;8363808;28;19928;-48
2021/12/06 05:05:15;;;;;;;;;;;16.80;38.20;;;;;;8352894;28;19975;-47
2021/12/06 05:09:18;;;;;;;;;;;16.80;38.20;;;;;;8337805;28;19931;-47
2021/12/06 05:13:19;;;;;;;;;;;16.80;38.20;;;;;;8363478;28;19913;-49
2021/12/06 05:17:20;;;;;;;;;;;16.80;38.20;;;;;;8363145;28;19924;-47
2021/12/06 05:21:20;;;;;;;;;;;16.80;38.20;;;;;;8362687;28;19917;-47
2021/12/06 05:25:23;;;;;;;;;;;16.80;38.20;;;;;;8363035;28;19916;-47
2021/12/06 05:29:26;;;;;;;;;;;16.80;38.10;;;;;;8363096;28;19927;-48
2021/12/06 05:33:30;;;;;;;;;;;16.80;38.20;;;;;;8362829;28;19928;-47
2021/12/06 05:37:32;;;;;;;;;;;16.80;38.10;;;;;;8363274;28;20004;-48
2021/12/06 05:41:33;;;;;;;;;;;16.80;38.10;;;;;;8363017;28;19948;-49
2021/12/06 05:45:36;;;;;;;;;;;16.80;38.10;;;;;;8362098;28;19917;-48
2021/12/06 05:49:37;;;;;;;;;;;16.80;38.10;;;;;;8362564;28;19925;-47
2021/12/06 05:53:38;;;;;;;;;;;16.90;38.10;;;;;;8362681;28;19978;-47
2021/12/06 05:57:38;;;;;;;;;;;16.80;38.10;;;;;;8362528;28;19917;-48
2021/12/06 06:01:39;;;;;;;;;;;16.80;38.10;;;;;;8363828;28;20374;-48
2021/12/06 06:05:39;;;;;;;;;;;16.80;38.10;;;;;;8368863;28;19913;-49
2021/12/06 06:09:40;;;;;;;;;;;16.80;38.10;;;;;;8368273;28;20389;-48
2021/12/06 06:13:40;;;;;;;;;;;16.80;38.10;;;;;;8369266;28;19996;-48
2021/12/06 06:17:43;;;;;;;;;;;16.80;38.10;;;;;;8368592;28;19924;-50
2021/12/06 06:21:44;;;;;;;;;;;16.80;38.10;;;;;;8367982;28;19916;-48
2021/12/06 06:25:44;;;;;;;;;;;16.80;38.10;;;;;;8368300;28;20003;-47
2021/12/06 06:29:45;;;;;;;;;;;16.80;38.10;;;;;;8368120;28;19936;-48
2021/12/06 06:33:45;;;;;;;;;;;16.80;38.10;;;;;;8367821;28;19913;-48
2021/12/06 06:37:46;;;;;;;;;;;16.80;38.10;;;;;;8368178;28;19916;-47
2021/12/06 06:41:50;;;;;;;;;;;16.80;38.10;;;;;;8367572;28;19913;-49
2021/12/06 06:45:50;;;;;;;;;;;16.80;38.10;;;;;;8368293;28;20360;-48
2021/12/06 06:49:51;;;;;;;;;;;16.80;38.10;;;;;;8367673;28;19917;-48
2021/12/06 06:53:51;;;;;;;;;;;16.80;38.10;;;;;;8367403;28;20016;-50
2021/12/06 06:57:52;;;;;;;;;;;16.80;38.10;;;;;;8367206;28;19924;-47
2021/12/06 07:01:53;;;;;;;;;;;16.80;38.10;;;;;;8367452;28;19921;-48
2021/12/06 07:05:53;;;;;;;;;;;16.80;38.10;;;;;;8366395;28;20009;-48
2021/12/06 07:09:54;;;;;;;;;;;16.80;38.10;;;;;;8366627;28;19913;-48
2021/12/06 07:13:55;;;;;;;;;;;16.80;38.10;;;;;;8366028;28;20346;-47
2021/12/06 07:17:56;;;;;;;;;;;16.80;38.10;;;;;;8366509;28;20404;-48
2021/12/06 07:21:57;;;;;;;;;;;16.80;38.10;;;;;;8366019;28;20385;-49
2021/12/06 07:25:57;;;;;;;;;;;16.80;38.10;;;;;;8366077;28;19999;-48
2021/12/06 07:29:58;;;;;;;;;;;16.80;38.00;;;;;;8365313;28;19928;-47
2021/12/06 07:33:58;;;;;;;;;;;16.80;38.00;;;;;;8366071;28;20412;-49
2021/12/06 07:38:00;;;;;;;;;;;16.80;38.00;;;;;;8365534;28;19944;-49
2021/12/06 07:42:01;;;;;;;;;;;16.80;38.10;;;;;;8365049;28;19991;-49
2021/12/06 07:46:01;;;;;;;;;;;16.80;38.10;;;;;;8365171;28;19917;-49
2021/12/06 07:50:03;;;;;;;;;;;16.80;38.10;;;;;;8365362;28;19920;-50
2021/12/06 07:54:04;;;;;;;;;;;16.80;38.10;;;;;;8365169;28;19916;-48
2021/12/06 07:58:05;;;;;;;;;;;16.80;38.10;;;;;;8365348;28;20016;-49
2021/12/06 08:02:07;;;;;;;;;;;16.90;38.10;;;;;;8358446;28;19927;-49
2021/12/06 08:06:08;;;;;;;;;;;16.80;38.10;;;;;;8362087;28;19923;-48
2021/12/06 08:10:09;;;;;;;;;;;16.80;38.00;;;;;;8364230;28;19916;-49
2021/12/06 08:14:09;;;;;;;;;;;16.80;38.10;;;;;;8365219;28;19913;-47
2021/12/06 08:18:10;;;;;;;;;;;16.80;38.00;;;;;;8364167;28;19917;-49
2021/12/06 08:22:10;;;;;;;;;;;16.80;38.00;;;;;;8364240;28;20007;-48
2021/12/06 08:26:11;;;;;;;;;;;16.80;38.00;;;;;;8364350;28;19975;-51
2021/12/06 08:30:13;;;;;;;;;;;16.80;38.00;;;;;;8363812;28;19999;-49
2021/12/06 08:34:13;;;;;;;;;;;16.80;38.00;;;;;;8364471;28;19919;-49
2021/12/06 08:38:14;;;;;;;;;;;16.80;38.00;;;;;;8364281;28;19917;-50
2021/12/06 08:42:15;;;;;;;;;;;16.80;38.00;;;;;;8363489;28;20385;-48
2021/12/06 08:46:27;;;;;;;;;;;16.80;38.00;;;;;;8363426;28;19927;-48
2021/12/06 08:50:28;;;;;;;;;;;16.80;38.00;;;;;;8363644;28;19923;-48
2021/12/06 08:54:29;;;;;;;;;;;16.80;38.00;;;;;;8363581;28;20309;-47
2021/12/06 08:58:29;;;;;;;;;;;16.80;38.00;;;;;;8363954;28;19967;-47
2021/12/06 09:02:30;;;;;;;;;;;16.80;38.00;;;;;;8363097;28;19917;-50
2021/12/06 09:06:30;;;;;;;;;;;16.80;38.00;;;;;;8352380;28;20011;-49
2021/12/06 09:10:32;;;;;;;;;;;16.80;38.00;;;;;;8364265;28;20374;-49
2021/12/06 09:14:32;;;;;;;;;;;16.80;38.00;;;;;;8363666;28;19920;-48
2021/12/06 09:18:34;;;;;;;;;;;16.80;37.90;;;;;;8362802;28;19923;-49
2021/12/06 09:22:35;;;;;;;;;;;16.80;38.00;;;;;;8363498;28;19924;-47
2021/12/06 09:26:35;;;;;;;;;;;16.80;37.80;;;;;;8363208;28;20019;-49
2021/12/06 09:30:36;;;;;;;;;;;16.80;37.90;;;;;;8362464;28;19921;-48
2021/12/06 09:34:39;;;;;;;;;;;16.80;37.90;;;;;;8363186;28;20370;-52
2021/12/06 09:38:40;;;;;;;;;;;16.80;37.80;;;;;;8367451;28;19916;-49
2021/12/06 09:42:43;;;;;;;;;;;16.80;37.80;;;;;;8369371;28;19917;-48
2021/12/06 09:46:44;;;;;;;;;;;16.90;37.80;;;;;;8369549;28;20015;-49
2021/12/06 09:50:50;;;;;;;;;;;16.90;37.80;;;;;;8369525;28;20004;-48
2021/12/06 09:54:51;;;;;;;;;;;16.80;37.70;;;;;;8369348;28;19920;-48
2021/12/06 09:58:52;;;;;;;;;;;16.90;37.80;;;;;;8369192;28;19921;-49
2021/12/06 10:02:53;;;;;;;;;;;16.90;37.70;;;;;;8368483;28;19917;-47
2021/12/06 10:06:54;;;;;;;;;;;16.90;37.70;;;;;;8369140;28;19970;-50
2021/12/06 10:10:55;;;;;;;;;;;16.90;37.70;;;;;;8368988;28;19963;-50
2021/12/06 10:14:56;;;;;;;;;;;16.90;37.70;;;;;;8358092;28;19921;-49
2021/12/06 10:18:57;;;;;;;;;;;16.90;37.60;;;;;;8365420;28;19944;-49
2021/12/06 10:22:59;;;;;;;;;;;16.90;37.70;;;;;;8368555;28;19916;-48
2021/12/06 10:27:02;;;;;;;;;;;16.90;37.60;;;;;;8367872;28;20290;-52
2021/12/06 10:31:05;;;;;;;;;;;16.90;37.60;;;;;;8367834;28;19923;-48
2021/12/06 10:35:08;;;;;;;;;;;16.90;37.60;;;;;;8368146;28;19928;-50
2021/12/06 10:39:08;;;;;;;;;;;16.90;37.60;;;;;;8364010;28;19917;-49
2021/12/06 10:43:10;;;;;;;;;;;16.90;37.60;;;;;;8361744;28;19952;-48
2021/12/06 10:47:12;;;;;;;;;;;17.00;37.70;;;;;;8364075;28;19931;-50
2021/12/06 10:51:16;;;;;;;;;;;17.00;37.70;;;;;;8359815;28;19917;-52
2021/12/06 10:55:17;;;;;;;;;;;17.00;37.70;;;;;;8366917;28;19939;-49
2021/12/06 10:59:18;;;;;;;;;;;17.00;37.80;;;;;;8363252;28;19931;-49
2021/12/06 11:03:21;;;;;;;;;;;17.00;37.70;;;;;;8360190;28;19917;-49
2021/12/06 11:07:30;;;;;;;;;;;17.00;37.80;;;;;;8361899;28;19964;-53
2021/12/06 11:11:34;;;;;;;;;;;17.00;37.80;;;;;;8361422;28;19920;-53
2021/12/06 11:15:35;;;;;;;;;;;17.00;37.80;;;;;;8364733;28;20004;-50
2021/12/06 11:19:36;;;;;;;;;;;17.00;37.80;;;;;;8362293;28;19928;-52
2021/12/06 11:23:54;;;;;;;;;;;17.00;37.70;;;;;;8363542;28;19917;-52
2021/12/06 11:27:54;;;;;;;;;;;17.00;37.80;;;;;;8363633;28;19935;-51
2021/12/06 11:31:55;;;;;;;;;;;17.00;37.80;;;;;;8366091;28;19920;-51
2021/12/06 11:35:55;;;;;;;;;;;17.00;37.80;;;;;;8365860;28;19917;-50
2021/12/06 11:40:17;;;;;;;;;;;17.00;37.70;;;;;;8366437;28;19920;-49
2021/12/06 11:44:20;;;;;;;;;;;17.00;37.80;;;;;;8366124;28;19963;-51
2021/12/06 11:48:31;;;;;;;;;;;17.00;37.80;;;;;;8365501;28;19960;-50
2021/12/06 11:52:33;;;;;;;;;;;17.00;37.80;;;;;;8365681;28;19917;-50
2021/12/06 11:56:36;;;;;;;;;;;17.10;37.80;;;;;;8365608;28;20277;-50
2021/12/06 12:00:37;;;;;;;;;;;17.10;37.80;;;;;;8364762;28;19925;-52
2021/12/06 12:04:37;;;;;;;;;;;17.10;37.90;;;;;;8365224;28;19916;-51
2021/12/06 12:08:37;;;;;;;;;;;17.10;37.90;;;;;;8364927;28;19921;-52
2021/12/06 12:12:39;;;;;;;;;;;17.10;37.80;;;;;;8364606;28;20266;-48
2021/12/06 12:16:39;;;;;;;;;;;17.10;37.90;;;;;;8365009;28;20293;-53
2021/12/06 12:20:40;;;;;;;;;;;17.10;37.90;;;;;;8364863;28;19916;-53
2021/12/06 12:24:46;;;;;;;;;;;17.10;37.90;;;;;;8363874;28;19917;-50
2021/12/06 12:29:01;;;;;;;;;;;17.10;38.40;;;;;;8369815;28;20037;-47
2021/12/06 12:33:03;;;;;;;;;;;17.10;38.00;;;;;;8364142;28;19917;-47
2021/12/06 12:37:05;;;;;;;;;;;17.10;38.00;;;;;;8364312;28;19919;-50
2021/12/06 12:41:08;;;;;;;;;;;17.10;38.00;;;;;;8364583;28;19952;-52
2021/12/06 12:45:13;;;;;;;;;;;17.10;38.00;;;;;;8363554;28;19917;-48
2021/12/06 12:49:16;;;;;;;;;;;17.10;38.00;;;;;;8363816;28;19925;-49
2021/12/06 12:53:17;;;;;;;;;;;17.10;38.10;;;;;;8363796;28;19912;-50
2021/12/06 12:57:17;;;;;;;;;;;17.10;38.10;;;;;;8363401;28;19971;-51
2021/12/06 13:01:22;;;;;;;;;;;17.10;38.00;;;;;;8364053;28;19921;-51
2021/12/06 13:05:29;;;;;;;;;;;17.00;38.00;;;;;;8363931;28;20293;-51
2021/12/06 13:09:30;;;;;;;;;;;17.00;38.10;;;;;;8362949;28;19936;-47
2021/12/06 13:13:34;;;;;;;;;;;17.00;38.10;;;;;;8362846;28;19917;-49
2021/12/06 13:17:44;;;;;;;;;;;17.00;38.10;;;;;;8363429;28;19948;-52
2021/12/06 13:21:52;;;;;;;;;;;17.00;38.10;;;;;;8362872;28;19913;-50
2021/12/06 13:26:06;;;;;;;;;;;17.00;38.10;;;;;;8366154;28;19944;-50
2021/12/06 13:30:24;;;;;;;;;;;17.00;38.20;;;;;;8362683;28;19933;-51
2021/12/06 13:34:29;;;;;;;;;;;17.00;38.20;;;;;;8362863;28;19943;-51
2021/12/06 13:38:36;;;;;;;;;;;17.00;38.20;;;;;;8362832;28;19917;-51
2021/12/06 13:42:38;;;;;;;;;;;17.00;38.20;;;;;;8362589;28;19921;-49
2021/12/06 13:46:40;;;;;;;;;;;17.00;38.20;;;;;;8362943;28;20008;-50
2021/12/06 13:50:42;;;;;;;;;;;17.00;38.20;;;;;;8362764;28;19917;-49
2021/12/06 13:54:49;;;;;;;;;;;17.00;38.20;;;;;;8362190;28;19921;-49
2021/12/06 13:58:49;;;;;;;;;;;16.90;38.10;;;;;;8362691;28;19974;-49
2021/12/06 14:02:54;;;;;;;;;;;16.90;38.20;;;;;;8362257;28;20374;-48
2021/12/06 14:06:56;;;;;;;;;;;16.90;38.10;;;;;;8362765;28;19952;-51
2021/12/06 14:10:57;;;;;;;;;;;16.90;38.10;;;;;;8338712;28;20347;-50
2021/12/06 14:15:06;;;;;;;;;;;16.90;38.10;;;;;;8353870;28;19924;-49
2021/12/06 14:19:08;;;;;;;;;;;16.90;38.10;;;;;;8369705;28;19924;-48
2021/12/06 14:23:12;;;;;;;;;;;16.90;38.10;;;;;;8364012;28;20404;-48
2021/12/06 14:27:13;;;;;;;;;;;16.90;38.00;;;;;;8367925;28;19928;-49
2021/12/06 14:31:13;;;;;;;;;;;16.90;38.10;;;;;;8368235;28;19988;-48
2021/12/06 14:35:14;;;;;;;;;;;16.90;38.00;;;;;;8368170;28;20400;-50
2021/12/06 14:39:17;;;;;;;;;;;16.90;38.60;;;;;;8367641;28;19917;-50
2021/12/06 14:43:21;;;;;;;;;;;16.90;38.00;;;;;;8368154;28;20431;-51
2021/12/06 14:47:29;;;;;;;;;;;16.90;37.90;;;;;;8367902;28;20454;-48
2021/12/06 14:51:33;;;;;;;;;;;16.90;37.90;;;;;;8367468;28;19917;-52
2021/12/06 14:59:44;;;;;;;;;;;16.90;37.90;;;;;;8370394;28;20366;-51
2021/12/06 15:03:57;;;;;;;;;;;16.90;37.90;;;;;;8366900;28;19917;-48
2021/12/06 15:08:03;;;;;;;;;;;16.90;37.90;;;;;;8367010;28;19929;-48
2021/12/06 15:12:05;;;;;;;;;;;16.90;37.90;;;;;;8366896;28;19913;-49
2021/12/06 15:16:07;;;;;;;;;;;16.90;37.90;;;;;;8367445;28;19921;-49
2021/12/06 15:20:08;;;;;;;;;;;16.90;37.90;;;;;;8366812;28;19917;-49
2021/12/06 15:24:11;;;;;;;;;;;16.90;37.90;;;;;;8366252;28;19970;-48
2021/12/06 15:28:11;;;;;;;;;;;16.80;37.90;;;;;;8366404;28;20019;-48
2021/12/06 15:32:13;;;;;;;;;;;16.80;37.90;;;;;;8366907;28;19935;-51
2021/12/06 15:36:15;;;;;;;;;;;16.80;37.90;;;;;;8365463;28;19917;-49
2021/12/06 15:40:15;;;;;;;;;;;16.80;37.90;;;;;;8366590;28;20389;-49
2021/12/06 15:44:18;;;;;;;;;;;16.80;37.90;;;;;;8366098;28;19973;-49
2021/12/06 15:48:20;;;;;;;;;;;16.80;37.90;;;;;;8365513;28;19925;-48
2021/12/06 15:52:23;;;;;;;;;;;16.80;37.90;;;;;;8366046;28;19996;-48
2021/12/06 15:56:24;;;;;;;;;;;16.80;37.90;;;;;;8365913;28;19920;-49
2021/12/06 16:00:28;;;;;;;;;;;16.80;38.00;;;;;;8365349;28;19974;-49
2021/12/06 16:04:28;;;;;;;;;;;16.80;38.00;;;;;;8365537;28;19993;-50
2021/12/06 16:08:33;;;;;;;;;;;16.70;38.40;;;;;;8365304;28;19920;-50
2021/12/06 16:12:36;;;;;;;;;;;16.70;37.90;;;;;;8365128;28;19924;-49
2021/12/06 16:16:44;;;;;;;;;;;16.70;37.90;;;;;;8364907;28;19917;-50
2021/12/06 16:20:49;;;;;;;;;;;16.70;37.90;;;;;;8364955;28;20425;-49
2021/12/06 16:24:50;;;;;;;;;;;16.70;37.90;;;;;;8364892;28;19967;-52
2021/12/06 16:28:51;;;;;;;;;;;16.70;37.90;;;;;;8364511;28;20315;-49
2021/12/06 16:32:53;;;;;;;;;;;16.70;37.90;;;;;;8364548;28;19917;-51
2021/12/06 16:36:55;;;;;;;;;;;16.70;37.90;;;;;;8364606;28;19943;-49
2021/12/06 16:40:55;;;;;;;;;;;16.70;37.90;;;;;;8364566;28;19924;-49
2021/12/06 16:45:05;;;;;;;;;;;16.70;37.90;;;;;;8363384;28;19916;-49
2021/12/06 16:49:05;;;;;;;;;;;16.60;37.80;;;;;;8363670;28;19925;-49
2021/12/06 16:53:10;;;;;;;;;;;16.60;37.80;;;;;;8363820;28;20293;-50
2021/12/06 16:57:12;;;;;;;;;;;16.60;37.80;;;;;;8363462;28;19924;-49
2021/12/06 17:01:13;;;;;;;;;;;16.60;37.80;;;;;;8362286;28;20333;-52
2021/12/06 17:05:13;;;;;;;;;;;16.60;37.80;;;;;;8363516;28;19952;-49
2021/12/06 17:09:15;;;;;;;;;;;16.60;37.80;;;;;;8362869;28;20028;-51
2021/12/06 17:13:26;;;;;;;;;;;16.60;37.80;;;;;;8363670;28;19936;-51
2021/12/06 17:17:42;;;;;;;;;;;16.60;37.80;;;;;;8363826;28;19956;-50
2021/12/06 17:21:44;;;;;;;;;;;16.60;37.80;;;;;;8362948;28;19949;-51
2021/12/06 17:25:46;;;;;;;;;;;16.60;37.90;;;;;;8363054;28;19920;-50
2021/12/06 17:29:52;;;;;;;;;;;16.60;37.80;;;;;;8362657;28;20413;-47
2021/12/06 17:33:55;;;;;;;;;;;16.50;37.80;;;;;;8367726;28;19917;-49
2021/12/06 17:37:56;;;;;;;;;;;16.50;37.70;;;;;;8363407;28;19921;-49
2021/12/06 17:41:57;;;;;;;;;;;16.50;37.70;;;;;;8362695;28;20380;-48
2021/12/06 17:46:01;;;;;;;;;;;16.50;37.70;;;;;;8362747;28;19924;-50
2021/12/06 17:50:02;;;;;;;;;;;16.50;37.80;;;;;;8362295;28;19956;-50
2021/12/06 17:54:03;;;;;;;;;;;16.50;37.80;;;;;;8362346;28;20336;-51
2021/12/06 17:58:16;;;;;;;;;;;16.50;37.70;;;;;;8364568;28;20362;-49
2021/12/06 18:02:17;;;;;;;;;;;16.50;37.70;;;;;;8373342;28;19921;-49
2021/12/06 18:06:17;;;;;;;;;;;16.50;38.30;;;;;;8368508;28;20401;-48
2021/12/06 18:10:18;;;;;;;;;;;16.50;37.80;;;;;;8368785;28;19944;-49
2021/12/06 18:14:19;;;;;;;;;;;16.50;37.80;;;;;;8368842;28;19913;-49
2021/12/06 18:18:19;;;;;;;;;;;16.50;37.80;;;;;;8368343;28;19924;-51
2021/12/06 18:22:20;;;;;;;;;;;16.50;37.80;;;;;;8369052;28;19967;-49
2021/12/06 18:26:20;;;;;;;;;;;16.50;37.80;;;;;;8368417;28;19992;-51
2021/12/06 18:30:21;;;;;;;;;;;16.40;37.70;;;;;;8367876;28;19925;-51
2021/12/06 18:34:22;;;;;;;;;;;16.40;37.70;;;;;;8368247;28;20223;-48
2021/12/06 18:38:26;;;;;;;;;;;16.40;37.70;;;;;;8368407;28;20275;-49
2021/12/06 18:42:29;;;;;;;;;;;16.40;37.70;;;;;;8367604;28;19973;-48
2021/12/06 18:46:30;;;;;;;;;;;16.40;37.70;;;;;;8367800;28;19993;-49
2021/12/06 18:50:32;;;;;;;;;;;16.40;37.70;;;;;;8367517;28;19920;-52
2021/12/06 18:54:33;;;;;;;;;;;16.40;37.70;;;;;;8366975;28;19917;-52
2021/12/06 18:58:33;;;;;;;;;;;16.40;37.70;;;;;;8367508;28;20320;-47
2021/12/06 19:02:34;;;;;;;;;;;16.40;37.70;;;;;;8367545;28;19917;-47
2021/12/06 19:06:35;;;;;;;;;;;16.40;37.70;;;;;;8366769;28;19917;-49
2021/12/06 19:10:36;;;;;;;;;;;16.40;37.70;;;;;;8366281;28;19936;-48
2021/12/06 19:14:38;;;;;;;;;;;16.30;37.60;;;;;;8367009;28;20012;-49
2021/12/06 19:18:38;;;;;;;;;;;16.40;37.60;;;;;;8366703;28;19912;-49
2021/12/06 19:22:39;;;;;;;;;;;16.40;37.60;;;;;;8366923;28;19956;-49
2021/12/06 19:26:39;;;;;;;;;;;16.30;37.60;;;;;;8367203;28;19920;-50
2021/12/06 19:30:41;;;;;;;;;;;16.30;37.60;;;;;;8366286;28;19920;-51
2021/12/06 19:34:45;;;;;;;;;;;16.30;37.70;;;;;;8366780;28;19939;-48
2021/12/06 19:38:45;;;;;;;;;;;16.30;37.70;;;;;;8366693;28;19914;-48
2021/12/06 19:42:48;;;;;;;;;;;16.30;37.60;;;;;;8366204;28;19920;-49
2021/12/06 19:46:48;;;;;;;;;;;16.30;37.60;;;;;;8366322;28;19925;-48
2021/12/06 19:50:49;;;;;;;;;;;16.30;37.60;;;;;;8365608;28;19939;-49
2021/12/06 19:54:50;;;;;;;;;;;16.30;37.70;;;;;;8365844;28;19982;-50
2021/12/06 19:58:51;;;;;;;;;;;16.20;37.60;;;;;;8366273;28;20365;-49
2021/12/06 20:02:52;;;;;;;;;;;16.30;37.60;;;;;;8364749;28;19924;-51
2021/12/06 20:06:55;;;;;;;;;;;16.30;37.70;;;;;;8354049;28;19925;-50
2021/12/06 20:10:56;;;;;;;;;;;16.20;37.60;;;;;;8365429;28;20011;-49
2021/12/06 20:14:57;;;;;;;;;;;16.30;37.70;;;;;;8364856;28;19916;-49
2021/12/06 20:18:58;;;;;;;;;;;16.30;37.70;;;;;;8365520;28;20003;-48
2021/12/06 20:22:59;;;;;;;;;;;16.30;37.60;;;;;;8364748;28;19917;-48
2021/12/06 20:27:01;;;;;;;;;;;16.30;37.70;;;;;;8364507;28;19925;-48
2021/12/06 20:31:04;;;;;;;;;;;16.30;37.60;;;;;;8364994;28;19959;-48
2021/12/06 20:35:06;;;;;;;;;;;16.30;37.70;;;;;;8364552;28;20012;-48
2021/12/06 20:39:09;;;;;;;;;;;16.20;37.70;;;;;;8364317;28;19920;-49
2021/12/06 20:43:10;;;;;;;;;;;16.20;37.60;;;;;;8364440;28;19917;-49
2021/12/06 20:47:10;;;;;;;;;;;16.20;37.60;;;;;;8364311;28;19947;-49
2021/12/06 20:51:11;;;;;;;;;;;16.30;37.70;;;;;;8363751;28;19920;-48
2021/12/06 20:55:11;;;;;;;;;;;16.20;37.60;;;;;;8363900;28;19917;-50
2021/12/06 20:59:13;;;;;;;;;;;16.20;37.60;;;;;;8364232;28;20290;-48
2021/12/06 21:03:14;;;;;;;;;;;16.20;37.60;;;;;;8363869;28;20003;-48
2021/12/06 21:07:15;;;;;;;;;;;16.20;37.60;;;;;;8364568;28;19925;-47
2021/12/06 21:19:42;;;;;;;;;;;16.20;37.60;;;;;;8369366;28;19975;-49
2021/12/06 21:23:42;;;;;;;;;;;16.20;37.50;;;;;;8363421;28;19984;-49
2021/12/06 21:27:45;;;;;;;;;;;16.20;37.60;;;;;;8362807;28;20404;-49
2021/12/06 21:31:45;;;;;;;;;;;16.20;37.60;;;;;;8362989;28;19924;-51
2021/12/06 21:35:46;;;;;;;;;;;16.20;37.60;;;;;;8362559;28;20401;-47
2021/12/06 21:39:46;;;;;;;;;;;16.20;37.60;;;;;;8363317;28;20328;-50
2021/12/06 21:43:47;;;;;;;;;;;16.10;37.60;;;;;;8363014;28;19963;-48
2021/12/06 21:47:48;;;;;;;;;;;16.10;37.60;;;;;;8362680;28;19924;-49
2021/12/06 21:51:48;;;;;;;;;;;16.10;37.60;;;;;;8362832;28;19920;-49
2021/12/06 21:55:49;;;;;;;;;;;16.20;37.70;;;;;;8362195;28;19968;-51
2021/12/06 21:59:49;;;;;;;;;;;16.10;37.60;;;;;;8362654;28;19921;-49
2021/12/06 22:07:50;;;;;;;;;;;16.20;37.70;;;;;;8362827;28;19956;-48
2021/12/06 22:11:51;;;;;;;;;;;16.10;37.60;;;;;;8362263;28;19916;-48
2021/12/06 22:15:51;;;;;;;;;;;16.20;37.60;;;;;;8362914;28;19917;-51
2021/12/06 22:19:52;;;;;;;;;;;16.20;37.60;;;;;;8362689;28;20399;-49
2021/12/06 22:23:52;;;;;;;;;;;16.20;37.60;;;;;;8362137;28;19917;-49
2021/12/06 22:27:54;;;;;;;;;;;16.20;37.60;;;;;;8362179;28;19979;-49
2021/12/06 22:31:54;;;;;;;;;;;16.20;37.60;;;;;;8362635;28;19956;-51
2021/12/06 22:35:55;;;;;;;;;;;16.20;37.60;;;;;;8361812;28;20240;-50
2021/12/06 22:39:56;;;;;;;;;;;16.10;37.60;;;;;;8362712;28;20318;-48
2021/12/06 22:43:56;;;;;;;;;;;16.20;37.60;;;;;;8363886;28;19921;-49
2021/12/06 22:47:57;;;;;;;;;;;16.10;37.60;;;;;;8367551;28;19928;-50
2021/12/06 22:51:57;;;;;;;;;;;16.10;37.60;;;;;;8367882;28;19916;-49
2021/12/06 22:55:58;;;;;;;;;;;16.10;37.60;;;;;;8367625;28;19956;-50
2021/12/06 22:59:58;;;;;;;;;;;16.10;37.60;;;;;;8367832;28;20361;-49
2021/12/06 23:04:01;;;;;;;;;;;16.10;37.60;;;;;;8367217;28;19917;-48
2021/12/06 23:08:01;;;;;;;;;;;16.10;37.60;;;;;;8362820;28;19928;-49
2021/12/06 23:12:02;;;;;;;;;;;16.10;37.70;;;;;;8366995;28;19939;-48
2021/12/06 23:16:03;;;;;;;;;;;16.10;37.70;;;;;;8367366;28;19956;-48
2021/12/06 23:20:04;;;;;;;;;;;16.10;37.60;;;;;;8367360;28;19913;-48
2021/12/06 23:24:06;;;;;;;;;;;16.00;37.60;;;;;;8366336;28;19917;-48
2021/12/06 23:28:06;;;;;;;;;;;16.00;37.60;;;;;;8366607;28;19929;-48
2021/12/06 23:32:07;;;;;;;;;;;16.00;37.60;;;;;;8366917;28;20285;-49
2021/12/06 23:36:08;;;;;;;;;;;16.00;37.60;;;;;;8365976;28;19917;-48
2021/12/06 23:40:31;;;;;;;;;;;16.00;37.60;;;;;;8366601;28;19991;-49
2021/12/06 23:48:51;;;;;;;;;;;16.10;37.70;;;;;;8365725;28;19932;-49
2021/12/06 23:52:51;;;;;;;;;;;16.00;37.70;;;;;;8365962;28;20011;-49
2021/12/06 23:56:52;;;;;;;;;;;16.10;37.80;;;;;;8365066;28;19916;-48
